sensor_id;sensor_type;location;lat;lon;timestamp;pressure;altitude;pressure_sealevel;temperature;humidity
76834;BME280;65793;42.678;23.332;2023-02-22T00:02:05;94710.69;;;6.80;100.00
76834;BME280;65793;42.678;23.332;2023-02-22T00:05:06;94707.25;;;6.73;100.00
76834;BME280;65793;42.678;23.332;2023-02-22T00:08:08;94715.50;;;6.70;100.00
76834;BME280;65793;42.678;23.332;2023-02-22T00:11:08;94713.09;;;6.75;100.00
76834;BME280;65793;42.678;23.332;2023-02-22T00:14:09;94710.25;;;6.70;100.00
76834;BME280;65793;42.678;23.332;2023-02-22T00:17:09;94709.88;;;6.66;100.00
76834;BME280;65793;42.678;23.332;2023-02-22T00:20:11;94717.31;;;6.69;100.00
76834;BME280;65793;42.678;23.332;2023-02-22T00:23:15;94717.09;;;6.71;100.00
76834;BME280;65793;42.678;23.332;2023-02-22T00:26:17;94717.72;;;6.66;100.00
76834;BME280;65793;42.678;23.332;2023-02-22T00:29:18;94710.06;;;6.58;100.00
76834;BME280;65793;42.678;23.332;2023-02-22T00:32:19;94705.22;;;6.62;100.00
76834;BME280;65793;42.678;23.332;2023-02-22T00:35:21;94706.44;;;6.66;100.00
76834;BME280;65793;42.678;23.332;2023-02-22T00:38:24;94709.06;;;6.66;100.00
76834;BME280;65793;42.678;23.332;2023-02-22T00:41:24;94697.56;;;6.60;100.00
76834;BME280;65793;42.678;23.332;2023-02-22T00:44:25;94703.59;;;6.54;100.00
76834;BME280;65793;42.678;23.332;2023-02-22T00:47:26;94698.97;;;6.50;100.00
76834;BME280;65793;42.678;23.332;2023-02-22T00:50:29;94692.50;;;6.52;100.00
76834;BME280;65793;42.678;23.332;2023-02-22T00:53:31;94688.88;;;6.53;100.00
76834;BME280;65793;42.678;23.332;2023-02-22T00:56:31;94684.66;;;6.52;100.00
76834;BME280;65793;42.678;23.332;2023-02-22T00:59:32;94681.84;;;6.54;100.00
76834;BME280;65793;42.678;23.332;2023-02-22T01:02:33;94676.59;;;6.54;100.00
76834;BME280;65793;42.678;23.332;2023-02-22T01:05:33;94675.63;;;6.61;100.00
76834;BME280;65793;42.678;23.332;2023-02-22T01:08:35;94671.94;;;6.29;100.00
76834;BME280;65793;42.678;23.332;2023-02-22T01:11:36;94675.53;;;6.22;100.00
76834;BME280;65793;42.678;23.332;2023-02-22T01:14:36;94675.91;;;6.12;100.00
76834;BME280;65793;42.678;23.332;2023-02-22T01:17:38;94673.47;;;6.04;100.00
76834;BME280;65793;42.678;23.332;2023-02-22T01:20:39;94665.81;;;6.02;100.00
76834;BME280;65793;42.678;23.332;2023-02-22T01:23:43;94668.47;;;5.81;100.00
76834;BME280;65793;42.678;23.332;2023-02-22T01:26:49;94668.00;;;5.64;100.00
76834;BME280;65793;42.678;23.332;2023-02-22T01:29:50;94666.63;;;5.68;100.00
76834;BME280;65793;42.678;23.332;2023-02-22T01:32:50;94664.38;;;5.65;100.00
76834;BME280;65793;42.678;23.332;2023-02-22T01:35:51;94655.72;;;5.99;100.00
76834;BME280;65793;42.678;23.332;2023-02-22T01:38:53;94660.75;;;5.94;100.00
76834;BME280;65793;42.678;23.332;2023-02-22T01:41:54;94667.03;;;6.07;100.00
76834;BME280;65793;42.678;23.332;2023-02-22T01:48:40;94663.97;;;5.96;100.00
76834;BME280;65793;42.678;23.332;2023-02-22T01:51:43;94664.69;;;5.84;100.00
76834;BME280;65793;42.678;23.332;2023-02-22T01:54:48;94669.91;;;5.84;100.00
76834;BME280;65793;42.678;23.332;2023-02-22T01:57:51;94667.03;;;5.72;100.00
76834;BME280;65793;42.678;23.332;2023-02-22T02:00:51;94659.78;;;5.67;100.00
76834;BME280;65793;42.678;23.332;2023-02-22T02:03:56;94666.97;;;5.59;100.00
76834;BME280;65793;42.678;23.332;2023-02-22T02:07:00;94678.00;;;5.54;100.00
76834;BME280;65793;42.678;23.332;2023-02-22T02:10:05;94679.16;;;5.45;100.00
76834;BME280;65793;42.678;23.332;2023-02-22T02:13:07;94674.81;;;5.24;100.00
76834;BME280;65793;42.678;23.332;2023-02-22T02:16:08;94675.78;;;5.23;100.00
76834;BME280;65793;42.678;23.332;2023-02-22T02:19:20;94672.09;;;5.11;100.00
76834;BME280;65793;42.678;23.332;2023-02-22T02:22:30;94670.38;;;4.97;100.00
76834;BME280;65793;42.678;23.332;2023-02-22T02:26:10;94683.19;;;4.92;100.00
76834;BME280;65793;42.678;23.332;2023-02-22T02:33:00;94682.13;;;4.86;100.00
76834;BME280;65793;42.678;23.332;2023-02-22T02:36:08;94682.25;;;4.78;100.00
76834;BME280;65793;42.678;23.332;2023-02-22T02:39:18;94683.88;;;4.79;100.00
76834;BME280;65793;42.678;23.332;2023-02-22T02:42:22;94690.47;;;4.75;100.00
76834;BME280;65793;42.678;23.332;2023-02-22T02:45:28;94690.28;;;4.77;100.00
76834;BME280;65793;42.678;23.332;2023-02-22T02:48:34;94692.88;;;4.77;100.00
76834;BME280;65793;42.678;23.332;2023-02-22T02:51:36;94687.75;;;4.83;100.00
76834;BME280;65793;42.678;23.332;2023-02-22T02:54:38;94686.41;;;4.94;100.00
76834;BME280;65793;42.678;23.332;2023-02-22T02:57:39;94692.75;;;5.06;100.00
76834;BME280;65793;42.678;23.332;2023-02-22T03:00:41;94694.84;;;5.17;100.00
76834;BME280;65793;42.678;23.332;2023-02-22T03:03:53;94689.66;;;5.24;100.00
76834;BME280;65793;42.678;23.332;2023-02-22T03:07:25;94691.28;;;5.25;100.00
76834;BME280;65793;42.678;23.332;2023-02-22T03:10:40;94699.00;;;5.12;100.00
76834;BME280;65793;42.678;23.332;2023-02-22T03:13:50;94699.19;;;5.10;100.00
76834;BME280;65793;42.678;23.332;2023-02-22T03:16:57;94701.44;;;5.13;100.00
76834;BME280;65793;42.678;23.332;2023-02-22T03:20:09;94696.66;;;5.17;100.00
76834;BME280;65793;42.678;23.332;2023-02-22T03:23:17;94692.28;;;5.24;100.00
76834;BME280;65793;42.678;23.332;2023-02-22T03:26:23;94696.16;;;5.35;100.00
76834;BME280;65793;42.678;23.332;2023-02-22T03:29:27;94693.41;;;5.43;100.00
76834;BME280;65793;42.678;23.332;2023-02-22T03:32:33;94695.06;;;5.50;100.00
76834;BME280;65793;42.678;23.332;2023-02-22T03:35:40;94693.09;;;5.59;100.00
76834;BME280;65793;42.678;23.332;2023-02-22T03:38:43;94693.38;;;5.71;100.00
76834;BME280;65793;42.678;23.332;2023-02-22T03:41:48;94687.19;;;5.78;100.00
76834;BME280;65793;42.678;23.332;2023-02-22T03:44:49;94687.41;;;5.83;100.00
76834;BME280;65793;42.678;23.332;2023-02-22T03:47:56;94682.44;;;5.88;100.00
76834;BME280;65793;42.678;23.332;2023-02-22T03:50:59;94691.56;;;5.71;100.00
76834;BME280;65793;42.678;23.332;2023-02-22T03:53:59;94701.47;;;5.48;100.00
76834;BME280;65793;42.678;23.332;2023-02-22T03:57:04;94689.47;;;5.25;100.00
76834;BME280;65793;42.678;23.332;2023-02-22T04:00:08;94687.41;;;5.21;100.00
76834;BME280;65793;42.678;23.332;2023-02-22T04:03:10;94691.78;;;5.14;100.00
76834;BME280;65793;42.678;23.332;2023-02-22T04:06:12;94689.50;;;5.04;100.00
76834;BME280;65793;42.678;23.332;2023-02-22T04:09:12;94679.03;;;4.98;100.00
76834;BME280;65793;42.678;23.332;2023-02-22T04:12:13;94687.28;;;5.01;100.00
76834;BME280;65793;42.678;23.332;2023-02-22T04:15:17;94694.91;;;5.03;100.00
76834;BME280;65793;42.678;23.332;2023-02-22T04:18:18;94695.69;;;4.97;100.00
76834;BME280;65793;42.678;23.332;2023-02-22T04:21:20;94687.75;;;4.83;100.00
76834;BME280;65793;42.678;23.332;2023-02-22T04:24:21;94693.59;;;4.64;100.00
76834;BME280;65793;42.678;23.332;2023-02-22T04:27:21;94696.91;;;4.58;100.00
76834;BME280;65793;42.678;23.332;2023-02-22T04:30:22;94705.63;;;4.44;100.00
76834;BME280;65793;42.678;23.332;2023-02-22T04:33:22;94701.31;;;4.36;100.00
76834;BME280;65793;42.678;23.332;2023-02-22T04:36:24;94699.75;;;4.21;100.00
76834;BME280;65793;42.678;23.332;2023-02-22T04:39:25;94711.00;;;4.21;100.00
76834;BME280;65793;42.678;23.332;2023-02-22T04:42:26;94708.84;;;4.10;100.00
76834;BME280;65793;42.678;23.332;2023-02-22T04:45:26;94699.66;;;4.14;100.00
76834;BME280;65793;42.678;23.332;2023-02-22T04:48:27;94701.91;;;4.17;100.00
76834;BME280;65793;42.678;23.332;2023-02-22T04:51:29;94696.66;;;3.96;100.00
76834;BME280;65793;42.678;23.332;2023-02-22T04:54:29;94691.81;;;3.93;100.00
76834;BME280;65793;42.678;23.332;2023-02-22T04:57:30;94701.94;;;3.88;100.00
76834;BME280;65793;42.678;23.332;2023-02-22T05:00:30;94704.75;;;3.71;100.00
76834;BME280;65793;42.678;23.332;2023-02-22T05:03:31;94711.88;;;3.77;100.00
76834;BME280;65793;42.678;23.332;2023-02-22T05:06:33;94708.81;;;3.74;100.00
76834;BME280;65793;42.678;23.332;2023-02-22T05:09:33;94708.44;;;3.62;100.00
76834;BME280;65793;42.678;23.332;2023-02-22T05:12:34;94721.63;;;3.61;100.00
76834;BME280;65793;42.678;23.332;2023-02-22T05:15:35;94708.63;;;3.61;100.00
76834;BME280;65793;42.678;23.332;2023-02-22T05:18:35;94713.94;;;3.67;100.00
76834;BME280;65793;42.678;23.332;2023-02-22T05:21:37;94715.28;;;3.63;100.00
76834;BME280;65793;42.678;23.332;2023-02-22T05:24:38;94722.56;;;3.68;100.00
76834;BME280;65793;42.678;23.332;2023-02-22T05:27:38;94721.84;;;3.59;100.00
76834;BME280;65793;42.678;23.332;2023-02-22T05:30:39;94730.63;;;3.58;100.00
76834;BME280;65793;42.678;23.332;2023-02-22T05:33:40;94732.78;;;3.69;100.00
76834;BME280;65793;42.678;23.332;2023-02-22T05:36:41;94740.53;;;3.77;100.00
76834;BME280;65793;42.678;23.332;2023-02-22T05:39:42;94741.22;;;3.71;100.00
76834;BME280;65793;42.678;23.332;2023-02-22T05:42:42;94744.72;;;3.78;100.00
76834;BME280;65793;42.678;23.332;2023-02-22T05:45:43;94751.47;;;3.88;100.00
76834;BME280;65793;42.678;23.332;2023-02-22T05:48:43;94755.59;;;3.97;100.00
76834;BME280;65793;42.678;23.332;2023-02-22T05:51:45;94742.28;;;4.06;100.00
76834;BME280;65793;42.678;23.332;2023-02-22T05:54:46;94753.50;;;4.22;100.00
76834;BME280;65793;42.678;23.332;2023-02-22T05:57:47;94752.22;;;4.32;100.00
76834;BME280;65793;42.678;23.332;2023-02-22T12:14:14;94485.19;;;19.93;32.92
76834;BME280;65793;42.678;23.332;2023-02-22T23:06:46;94586.44;;;6.83;100.00
76834;BME280;65793;42.678;23.332;2023-02-22T23:09:47;94586.44;;;6.76;100.00
76834;BME280;65793;42.678;23.332;2023-02-22T23:12:48;94583.63;;;6.71;100.00
76834;BME280;65793;42.678;23.332;2023-02-22T23:15:48;94581.00;;;6.71;100.00
76834;BME280;65793;42.678;23.332;2023-02-22T23:18:49;94586.84;;;6.73;100.00
76834;BME280;65793;42.678;23.332;2023-02-22T23:21:52;94592.47;;;6.70;100.00
76834;BME280;65793;42.678;23.332;2023-02-22T23:24:52;94584.81;;;6.55;100.00
76834;BME280;65793;42.678;23.332;2023-02-22T23:27:53;94589.03;;;6.43;100.00
76834;BME280;65793;42.678;23.332;2023-02-22T23:30:53;94591.47;;;6.38;100.00
76834;BME280;65793;42.678;23.332;2023-02-22T23:33:55;94589.41;;;6.33;100.00
76834;BME280;65793;42.678;23.332;2023-02-22T23:36:57;94592.84;;;6.34;100.00
76834;BME280;65793;42.678;23.332;2023-02-22T23:39:57;94588.22;;;6.36;100.00
76834;BME280;65793;42.678;23.332;2023-02-22T23:42:58;94591.47;;;6.38;100.00
76834;BME280;65793;42.678;23.332;2023-02-22T23:46:03;94586.59;;;6.35;100.00
76834;BME280;65793;42.678;23.332;2023-02-22T23:49:04;94585.00;;;6.34;100.00
76834;BME280;65793;42.678;23.332;2023-02-22T23:52:07;94592.66;;;6.29;100.00
76834;BME280;65793;42.678;23.332;2023-02-22T23:55:08;94592.84;;;6.27;100.00
76834;BME280;65793;42.678;23.332;2023-02-22T23:58:09;94579.75;;;6.21;100.00
